Aeroboteco Virtual Airline

Aeroboteco Virtual Airlines! Uma nuvem a frente.



 INFORMAÇÕES METEOROLÓGICAS
METAR FOR UMMS
ADDS - METARS form results

(1008 UTC 16 January 2019)
Data provider http://aviationweather.gov/metar/data/
 
METAR text: UMMS 161000Z 30004MPS 9999 BKN011 M03/M05 Q1000 R31/810342 NOSIG
Conditions at: UMMS (MINSK , BY) observed 1000 UTC 16 January 2019
Temperature: -3.0°C (27°F)
Dewpoint: -5.0°C (23°F) [RH = 86%]
Pressure (altimeter): 29.53 inches Hg (1000.0 mb)
Winds: from the WNW (300 degrees) at 9 MPH (8 knots; 4.1 m/s)
Visibility: 6 or more miles (10+ km)
Ceiling: 1100 feet AGL
Clouds: broken clouds at 1100 feet AGL
Weather: no significant weather observed at this time

METAR text: UMMS 160930Z 30006MPS 260V320 9999 BKN012 M03/M05 Q0999 R31/810342 NOSIG
Conditions at: UMMS (MINSK , BY) observed 0930 UTC 16 January 2019
Temperature: -3.0°C (27°F)
Dewpoint: -5.0°C (23°F) [RH = 86%]
Pressure (altimeter): 29.50 inches Hg (999.0 mb)
Winds: from the WNW (300 degrees) at 14 MPH (12 knots; 6.2 m/s)
Visibility: 6 or more miles (10+ km)
Ceiling: 1200 feet AGL
Clouds: broken clouds at 1200 feet AGL
Weather: no significant weather observed at this time

METAR text: UMMS 160917Z 30004MPS 9999 BKN012 M03/M05 Q0999 R31/810342 NOSIG
Conditions at: UMMS (MINSK , BY) observed 0917 UTC 16 January 2019
Temperature: -3.0°C (27°F)
Dewpoint: -5.0°C (23°F) [RH = 86%]
Pressure (altimeter): 29.50 inches Hg (999.0 mb)
Winds: from the WNW (300 degrees) at 9 MPH (8 knots; 4.1 m/s)
Visibility: 6 or more miles (10+ km)
Ceiling: 1200 feet AGL
Clouds: broken clouds at 1200 feet AGL
Weather: no significant weather observed at this time

Forecast for: UMMS (MINSK , BY)
Text: TAF UMMS 160508Z 1606/1706 25005G10MPS 6000 BKN007
Forecast period: 0600 to 2100 UTC 16 January 2019
Forecast type: FROM: standard forecast or significant change
Winds: from the WSW (250 degrees) at 12 MPH (10 knots; 5.1 m/s)
gusting to 22 MPH (19 knots; 9.8 m/s)
Visibility: 4 miles (6 km)
Ceiling: 700 feet AGL
Clouds: broken clouds at 700 feet AGL
Weather: no significant weather forecast for this period
Text: TEMPO 1606/1621 27009G14MPS 0800 +SHSN BLSN OVC003 BKN015CB
Forecast period: 0600 to 2100 UTC 16 January 2019
Forecast type: TEMPORARY: The following changes expected for less than half the time period
Winds: from the W (270 degrees) at 20 MPH (17 knots; 8.7 m/s)
gusting to 31 MPH (27 knots; 13.9 m/s)
Visibility: 0.50 miles (0.80 km)
Ceiling: 300 feet AGL
Clouds: overcast cloud deck at 300 feet AGL
broken clouds at 1500 feet AGL
Weather: +SHSN BLSN  (heavy snow showers, blowing snow)
Text: FM162100 23005G10MPS 2100 -SN BLSN BR BKN005
Forecast period: 2100 UTC 16 January 2019 to 0600 UTC 17 January 2019
Forecast type: FROM: standard forecast or significant change
Winds: from the SW (230 degrees) at 12 MPH (10 knots; 5.1 m/s)
gusting to 22 MPH (19 knots; 9.8 m/s)
Visibility: 1.30 miles (2.09 km)
Ceiling: 500 feet AGL
Clouds: broken clouds at 500 feet AGL
Weather: -SN BLSN BR  (light snow, blowing snow, mist)
Text: TEMPO 1621/1706 21008G13MPS 0800 +SHSNRA OVC003 BKN012CB
Forecast period: 2100 UTC 16 January 2019 to 0600 UTC 17 January 2019
Forecast type: TEMPORARY: The following changes expected for less than half the time period
Winds: from the SSW (210 degrees) at 18 MPH (16 knots; 8.2 m/s)
gusting to 29 MPH (25 knots; 12.9 m/s)
Visibility: 0.50 miles (0.80 km)
Ceiling: 300 feet AGL
Clouds: overcast cloud deck at 300 feet AGL
broken clouds at 1200 feet AGL
Weather: +SHSN +SHRA  (heavy snow showers, heavy rain showers)

 MAPA DO AEROPORTO

 INFORMAÇÕES DA PISTA
Pista 13 Tamanho da pista 11946 ft Largura da pista 197 ft
Elevação da pista 640 ft Ranhura da pista 0 ft Proa da pista 139
Pista 31 Tamanho da pista 11946 ft Largura da pista 197 ft
Elevação da pista 670 ft Ranhura da pista 0 ft Proa da pista 319

 FREQUÊNCIAS DO AEROPORTO
Tipo APP Nome MINSK APP Frequência 125.9 MHZ
Tipo ATIS Nome ATIS Frequência 128.85 MHZ
Tipo GND Nome GND Frequência 121.7 MHZ
Tipo PMSV Nome MINSK VOLM Frequência 126.675 MHZ
Tipo RDR Nome MINSK RADA Frequência 125.25 MHZ
Tipo TWR Nome TWR Frequência 118.3 MHZ

 AUXÍLIOS DE NAVEGAÇÃO PRÓXIMOS AO AEROPORTO
Tipo NDB Nome Minsk-2 Frequência 635 KHZ
Tipo VOR-DME Nome Minsk-2 Frequência 113600 KHZ
Tipo NDB Nome Minsk-2 Frequência 635 KHZ